sensor_id;sensor_type;location;lat;lon;timestamp;P1;durP1;ratioP1;P2;durP2;ratioP2
55314;SDS011;41619;42.816;23.226;2023-05-20T00:01:28;26.42;;;14.20;;
55314;SDS011;41619;42.816;23.226;2023-05-20T00:03:54;25.25;;;14.40;;
55314;SDS011;41619;42.816;23.226;2023-05-20T00:06:19;25.98;;;14.30;;
55314;SDS011;41619;42.816;23.226;2023-05-20T00:08:44;23.23;;;14.60;;
55314;SDS011;41619;42.816;23.226;2023-05-20T00:11:10;19.50;;;13.50;;
55314;SDS011;41619;42.816;23.226;2023-05-20T00:13:35;28.23;;;13.88;;
55314;SDS011;41619;42.816;23.226;2023-05-20T00:16:01;20.88;;;13.85;;
55314;SDS011;41619;42.816;23.226;2023-05-20T00:18:26;24.77;;;13.32;;
55314;SDS011;41619;42.816;23.226;2023-05-20T00:20:51;16.85;;;12.23;;
55314;SDS011;41619;42.816;23.226;2023-05-20T00:23:18;26.65;;;13.27;;
55314;SDS011;41619;42.816;23.226;2023-05-20T00:25:43;20.70;;;12.55;;
55314;SDS011;41619;42.816;23.226;2023-05-20T00:28:09;18.02;;;12.88;;
55314;SDS011;41619;42.816;23.226;2023-05-20T00:30:34;23.60;;;12.27;;
55314;SDS011;41619;42.816;23.226;2023-05-20T00:33:00;18.65;;;12.52;;
55314;SDS011;41619;42.816;23.226;2023-05-20T00:35:25;17.27;;;12.15;;
55314;SDS011;41619;42.816;23.226;2023-05-20T00:37:50;18.83;;;12.38;;
55314;SDS011;41619;42.816;23.226;2023-05-20T00:40:16;18.27;;;13.07;;
55314;SDS011;41619;42.816;23.226;2023-05-20T00:42:41;32.15;;;13.25;;
55314;SDS011;41619;42.816;23.226;2023-05-20T00:45:07;22.73;;;14.30;;
55314;SDS011;41619;42.816;23.226;2023-05-20T00:47:33;23.40;;;13.95;;
55314;SDS011;41619;42.816;23.226;2023-05-20T00:50:00;22.33;;;13.95;;
55314;SDS011;41619;42.816;23.226;2023-05-20T00:52:28;23.10;;;13.52;;
55314;SDS011;41619;42.816;23.226;2023-05-20T00:54:56;26.58;;;15.07;;
55314;SDS011;41619;42.816;23.226;2023-05-20T00:57:22;21.98;;;14.13;;
55314;SDS011;41619;42.816;23.226;2023-05-20T00:59:48;23.35;;;14.27;;
55314;SDS011;41619;42.816;23.226;2023-05-20T01:02:13;19.80;;;13.40;;
55314;SDS011;41619;42.816;23.226;2023-05-20T01:04:40;20.52;;;14.50;;
55314;SDS011;41619;42.816;23.226;2023-05-20T01:07:10;21.88;;;14.05;;
55314;SDS011;41619;42.816;23.226;2023-05-20T01:09:37;22.63;;;14.23;;
55314;SDS011;41619;42.816;23.226;2023-05-20T01:12:11;21.88;;;13.98;;
55314;SDS011;41619;42.816;23.226;2023-05-20T01:14:41;26.95;;;13.65;;
55314;SDS011;41619;42.816;23.226;2023-05-20T01:17:11;19.42;;;13.32;;
55314;SDS011;41619;42.816;23.226;2023-05-20T01:19:42;22.55;;;14.07;;
55314;SDS011;41619;42.816;23.226;2023-05-20T01:22:09;18.90;;;13.38;;
55314;SDS011;41619;42.816;23.226;2023-05-20T01:24:39;25.20;;;14.25;;
55314;SDS011;41619;42.816;23.226;2023-05-20T01:27:06;20.15;;;14.25;;
55314;SDS011;41619;42.816;23.226;2023-05-20T01:29:34;17.60;;;12.75;;
55314;SDS011;41619;42.816;23.226;2023-05-20T01:32:00;25.13;;;13.35;;
55314;SDS011;41619;42.816;23.226;2023-05-20T01:34:30;23.98;;;13.57;;
55314;SDS011;41619;42.816;23.226;2023-05-20T01:36:56;27.17;;;13.60;;
55314;SDS011;41619;42.816;23.226;2023-05-20T01:39:22;26.38;;;13.80;;
55314;SDS011;41619;42.816;23.226;2023-05-20T01:41:49;21.80;;;13.27;;
55314;SDS011;41619;42.816;23.226;2023-05-20T01:44:15;22.30;;;14.65;;
55314;SDS011;41619;42.816;23.226;2023-05-20T01:46:40;23.40;;;13.57;;
55314;SDS011;41619;42.816;23.226;2023-05-20T01:49:06;21.98;;;13.85;;
55314;SDS011;41619;42.816;23.226;2023-05-20T01:51:31;21.98;;;13.23;;
55314;SDS011;41619;42.816;23.226;2023-05-20T01:53:59;26.45;;;13.23;;
55314;SDS011;41619;42.816;23.226;2023-05-20T01:56:24;21.48;;;13.13;;
55314;SDS011;41619;42.816;23.226;2023-05-20T01:58:50;26.77;;;12.93;;
55314;SDS011;41619;42.816;23.226;2023-05-20T02:01:15;21.52;;;12.27;;
55314;SDS011;41619;42.816;23.226;2023-05-20T02:03:41;20.75;;;12.55;;
55314;SDS011;41619;42.816;23.226;2023-05-20T02:06:06;22.92;;;12.57;;
55314;SDS011;41619;42.816;23.226;2023-05-20T02:08:31;17.08;;;11.63;;
55314;SDS011;41619;42.816;23.226;2023-05-20T02:10:57;16.67;;;12.40;;
55314;SDS011;41619;42.816;23.226;2023-05-20T02:13:22;20.30;;;10.93;;
55314;SDS011;41619;42.816;23.226;2023-05-20T02:15:47;18.77;;;11.80;;
55314;SDS011;41619;42.816;23.226;2023-05-20T02:18:13;23.67;;;12.70;;
55314;SDS011;41619;42.816;23.226;2023-05-20T02:20:38;16.80;;;11.27;;
55314;SDS011;41619;42.816;23.226;2023-05-20T02:23:04;17.58;;;12.15;;
55314;SDS011;41619;42.816;23.226;2023-05-20T02:25:30;19.23;;;11.25;;
55314;SDS011;41619;42.816;23.226;2023-05-20T02:27:56;20.00;;;11.93;;
55314;SDS011;41619;42.816;23.226;2023-05-20T02:30:21;17.42;;;11.10;;
55314;SDS011;41619;42.816;23.226;2023-05-20T02:32:47;16.85;;;10.98;;
55314;SDS011;41619;42.816;23.226;2023-05-20T02:35:12;19.92;;;11.25;;
55314;SDS011;41619;42.816;23.226;2023-05-20T02:37:38;21.45;;;11.88;;
55314;SDS011;41619;42.816;23.226;2023-05-20T02:40:03;20.05;;;12.35;;
55314;SDS011;41619;42.816;23.226;2023-05-20T02:42:30;20.02;;;11.88;;
55314;SDS011;41619;42.816;23.226;2023-05-20T02:44:56;23.55;;;12.88;;
55314;SDS011;41619;42.816;23.226;2023-05-20T02:47:23;21.75;;;13.30;;
55314;SDS011;41619;42.816;23.226;2023-05-20T02:49:49;29.85;;;14.07;;
55314;SDS011;41619;42.816;23.226;2023-05-20T02:52:14;30.60;;;14.05;;
55314;SDS011;41619;42.816;23.226;2023-05-20T02:54:40;28.83;;;18.05;;
55314;SDS011;41619;42.816;23.226;2023-05-20T02:57:05;34.97;;;17.80;;
55314;SDS011;41619;42.816;23.226;2023-05-20T02:59:31;24.67;;;15.10;;
55314;SDS011;41619;42.816;23.226;2023-05-20T03:01:56;31.92;;;20.70;;
55314;SDS011;41619;42.816;23.226;2023-05-20T03:04:22;28.40;;;17.23;;
55314;SDS011;41619;42.816;23.226;2023-05-20T03:06:49;23.95;;;13.43;;
55314;SDS011;41619;42.816;23.226;2023-05-20T03:09:16;23.48;;;11.82;;
55314;SDS011;41619;42.816;23.226;2023-05-20T03:11:42;19.40;;;12.80;;
55314;SDS011;41619;42.816;23.226;2023-05-20T03:14:08;20.08;;;13.00;;
55314;SDS011;41619;42.816;23.226;2023-05-20T03:16:33;23.92;;;12.45;;
55314;SDS011;41619;42.816;23.226;2023-05-20T03:18:59;25.92;;;12.50;;
55314;SDS011;41619;42.816;23.226;2023-05-20T03:21:25;24.58;;;13.35;;
55314;SDS011;41619;42.816;23.226;2023-05-20T03:23:50;23.52;;;12.90;;
55314;SDS011;41619;42.816;23.226;2023-05-20T03:26:16;23.27;;;13.43;;
55314;SDS011;41619;42.816;23.226;2023-05-20T03:28:41;27.25;;;14.10;;
55314;SDS011;41619;42.816;23.226;2023-05-20T03:31:07;26.73;;;14.40;;
55314;SDS011;41619;42.816;23.226;2023-05-20T03:33:33;25.52;;;13.80;;
55314;SDS011;41619;42.816;23.226;2023-05-20T03:35:59;19.60;;;13.52;;
55314;SDS011;41619;42.816;23.226;2023-05-20T03:38:25;22.50;;;13.93;;
55314;SDS011;41619;42.816;23.226;2023-05-20T03:40:51;21.77;;;13.75;;
55314;SDS011;41619;42.816;23.226;2023-05-20T03:43:16;29.17;;;14.13;;
55314;SDS011;41619;42.816;23.226;2023-05-20T03:45:42;20.50;;;13.68;;
55314;SDS011;41619;42.816;23.226;2023-05-20T03:48:07;24.30;;;14.73;;
55314;SDS011;41619;42.816;23.226;2023-05-20T03:50:32;21.35;;;13.77;;
55314;SDS011;41619;42.816;23.226;2023-05-20T03:52:58;29.10;;;15.02;;
55314;SDS011;41619;42.816;23.226;2023-05-20T03:55:23;29.00;;;16.88;;
55314;SDS011;41619;42.816;23.226;2023-05-20T03:57:49;28.33;;;16.35;;
55314;SDS011;41619;42.816;23.226;2023-05-20T04:00:15;36.10;;;17.00;;
55314;SDS011;41619;42.816;23.226;2023-05-20T04:02:41;40.60;;;17.48;;
55314;SDS011;41619;42.816;23.226;2023-05-20T04:05:07;48.60;;;24.17;;
55314;SDS011;41619;42.816;23.226;2023-05-20T04:07:34;32.08;;;18.90;;
55314;SDS011;41619;42.816;23.226;2023-05-20T04:09:59;33.85;;;17.50;;
55314;SDS011;41619;42.816;23.226;2023-05-20T04:12:25;33.95;;;17.90;;
55314;SDS011;41619;42.816;23.226;2023-05-20T04:14:55;57.78;;;26.80;;
55314;SDS011;41619;42.816;23.226;2023-05-20T04:17:25;35.65;;;17.67;;
55314;SDS011;41619;42.816;23.226;2023-05-20T04:19:56;30.48;;;15.25;;
55314;SDS011;41619;42.816;23.226;2023-05-20T04:22:23;21.88;;;13.23;;
55314;SDS011;41619;42.816;23.226;2023-05-20T04:24:50;27.98;;;14.63;;
55314;SDS011;41619;42.816;23.226;2023-05-20T04:27:15;20.38;;;13.45;;
55314;SDS011;41619;42.816;23.226;2023-05-20T04:29:41;25.58;;;14.65;;
55314;SDS011;41619;42.816;23.226;2023-05-20T04:32:09;30.35;;;17.10;;
55314;SDS011;41619;42.816;23.226;2023-05-20T04:34:38;26.58;;;15.93;;
55314;SDS011;41619;42.816;23.226;2023-05-20T04:37:04;24.58;;;14.65;;
55314;SDS011;41619;42.816;23.226;2023-05-20T04:39:31;27.23;;;13.75;;
55314;SDS011;41619;42.816;23.226;2023-05-20T04:41:57;24.00;;;12.80;;
55314;SDS011;41619;42.816;23.226;2023-05-20T04:44:23;25.88;;;13.98;;
55314;SDS011;41619;42.816;23.226;2023-05-20T04:46:50;23.55;;;12.75;;
55314;SDS011;41619;42.816;23.226;2023-05-20T04:49:16;22.25;;;15.00;;
55314;SDS011;41619;42.816;23.226;2023-05-20T04:51:42;20.15;;;14.38;;
55314;SDS011;41619;42.816;23.226;2023-05-20T04:54:07;19.17;;;13.25;;
55314;SDS011;41619;42.816;23.226;2023-05-20T04:56:33;24.45;;;14.05;;
55314;SDS011;41619;42.816;23.226;2023-05-20T04:58:58;24.33;;;12.77;;
55314;SDS011;41619;42.816;23.226;2023-05-20T05:01:24;22.33;;;14.80;;
55314;SDS011;41619;42.816;23.226;2023-05-20T05:03:49;27.85;;;17.67;;
55314;SDS011;41619;42.816;23.226;2023-05-20T05:06:15;22.73;;;16.05;;
55314;SDS011;41619;42.816;23.226;2023-05-20T05:08:40;27.63;;;16.20;;
55314;SDS011;41619;42.816;23.226;2023-05-20T05:11:06;26.88;;;14.20;;
55314;SDS011;41619;42.816;23.226;2023-05-20T05:13:33;46.20;;;20.52;;
55314;SDS011;41619;42.816;23.226;2023-05-20T05:15:58;48.22;;;25.15;;
55314;SDS011;41619;42.816;23.226;2023-05-20T05:18:25;36.83;;;15.68;;
55314;SDS011;41619;42.816;23.226;2023-05-20T05:20:57;22.67;;;13.52;;
55314;SDS011;41619;42.816;23.226;2023-05-20T05:23:26;19.65;;;12.30;;
55314;SDS011;41619;42.816;23.226;2023-05-20T05:25:52;111.00;;;45.97;;
55314;SDS011;41619;42.816;23.226;2023-05-20T05:28:17;62.90;;;27.80;;
55314;SDS011;41619;42.816;23.226;2023-05-20T05:30:43;42.83;;;24.00;;
55314;SDS011;41619;42.816;23.226;2023-05-20T05:33:09;25.13;;;14.02;;
55314;SDS011;41619;42.816;23.226;2023-05-20T05:35:34;21.60;;;13.50;;
55314;SDS011;41619;42.816;23.226;2023-05-20T05:38:00;21.67;;;13.10;;
55314;SDS011;41619;42.816;23.226;2023-05-20T05:40:25;21.70;;;13.60;;
55314;SDS011;41619;42.816;23.226;2023-05-20T05:42:51;18.73;;;12.98;;
55314;SDS011;41619;42.816;23.226;2023-05-20T05:45:17;19.48;;;13.05;;
55314;SDS011;41619;42.816;23.226;2023-05-20T05:47:42;20.23;;;12.90;;
55314;SDS011;41619;42.816;23.226;2023-05-20T05:50:08;21.75;;;13.27;;
55314;SDS011;41619;42.816;23.226;2023-05-20T05:52:34;26.10;;;13.35;;
55314;SDS011;41619;42.816;23.226;2023-05-20T05:55:00;17.20;;;12.07;;
55314;SDS011;41619;42.816;23.226;2023-05-20T05:57:25;24.40;;;12.50;;
55314;SDS011;41619;42.816;23.226;2023-05-20T05:59:51;25.15;;;12.98;;
55314;SDS011;41619;42.816;23.226;2023-05-20T06:02:16;17.60;;;12.90;;
55314;SDS011;41619;42.816;23.226;2023-05-20T06:04:42;24.25;;;13.32;;
55314;SDS011;41619;42.816;23.226;2023-05-20T06:07:07;18.75;;;12.52;;
55314;SDS011;41619;42.816;23.226;2023-05-20T06:09:32;19.08;;;12.23;;
55314;SDS011;41619;42.816;23.226;2023-05-20T06:11:58;26.60;;;13.82;;
55314;SDS011;41619;42.816;23.226;2023-05-20T06:14:23;20.45;;;12.85;;
55314;SDS011;41619;42.816;23.226;2023-05-20T06:16:48;20.73;;;12.60;;
55314;SDS011;41619;42.816;23.226;2023-05-20T06:19:14;19.63;;;13.18;;
55314;SDS011;41619;42.816;23.226;2023-05-20T06:21:39;24.45;;;12.95;;
55314;SDS011;41619;42.816;23.226;2023-05-20T06:24:05;17.70;;;11.60;;
55314;SDS011;41619;42.816;23.226;2023-05-20T06:26:30;17.40;;;12.10;;
55314;SDS011;41619;42.816;23.226;2023-05-20T06:28:55;23.00;;;11.57;;
55314;SDS011;41619;42.816;23.226;2023-05-20T06:31:21;33.67;;;12.90;;
55314;SDS011;41619;42.816;23.226;2023-05-20T06:33:47;20.05;;;12.90;;
55314;SDS011;41619;42.816;23.226;2023-05-20T06:36:12;19.40;;;11.73;;
55314;SDS011;41619;42.816;23.226;2023-05-20T06:38:37;17.40;;;12.23;;
55314;SDS011;41619;42.816;23.226;2023-05-20T06:41:04;17.88;;;12.45;;
55314;SDS011;41619;42.816;23.226;2023-05-20T06:43:29;20.00;;;12.23;;
55314;SDS011;41619;42.816;23.226;2023-05-20T06:45:55;19.25;;;11.95;;
55314;SDS011;41619;42.816;23.226;2023-05-20T06:48:20;18.50;;;11.80;;
55314;SDS011;41619;42.816;23.226;2023-05-20T06:50:45;19.75;;;12.70;;
55314;SDS011;41619;42.816;23.226;2023-05-20T06:53:11;18.35;;;12.63;;
55314;SDS011;41619;42.816;23.226;2023-05-20T06:55:36;21.77;;;13.13;;
55314;SDS011;41619;42.816;23.226;2023-05-20T06:58:02;16.27;;;12.15;;
55314;SDS011;41619;42.816;23.226;2023-05-20T07:00:27;15.32;;;10.32;;
55314;SDS011;41619;42.816;23.226;2023-05-20T07:02:53;20.65;;;11.95;;
55314;SDS011;41619;42.816;23.226;2023-05-20T07:05:18;14.40;;;10.60;;
55314;SDS011;41619;42.816;23.226;2023-05-20T07:07:44;31.63;;;11.40;;
55314;SDS011;41619;42.816;23.226;2023-05-20T07:10:09;18.08;;;9.07;;
55314;SDS011;41619;42.816;23.226;2023-05-20T07:12:35;16.27;;;8.68;;
55314;SDS011;41619;42.816;23.226;2023-05-20T07:15:00;17.40;;;9.57;;
55314;SDS011;41619;42.816;23.226;2023-05-20T07:17:26;16.83;;;8.85;;
55314;SDS011;41619;42.816;23.226;2023-05-20T07:19:53;18.27;;;8.70;;
55314;SDS011;41619;42.816;23.226;2023-05-20T07:22:19;12.48;;;8.75;;
55314;SDS011;41619;42.816;23.226;2023-05-20T07:24:45;13.32;;;8.30;;
55314;SDS011;41619;42.816;23.226;2023-05-20T07:27:10;19.30;;;9.40;;
55314;SDS011;41619;42.816;23.226;2023-05-20T07:29:36;12.80;;;7.90;;
55314;SDS011;41619;42.816;23.226;2023-05-20T07:32:02;14.50;;;7.30;;
55314;SDS011;41619;42.816;23.226;2023-05-20T07:34:28;10.20;;;6.78;;
55314;SDS011;41619;42.816;23.226;2023-05-20T07:36:53;11.75;;;6.88;;
55314;SDS011;41619;42.816;23.226;2023-05-20T07:39:19;16.15;;;7.63;;
55314;SDS011;41619;42.816;23.226;2023-05-20T07:41:44;10.27;;;7.47;;
55314;SDS011;41619;42.816;23.226;2023-05-20T07:44:10;11.10;;;7.30;;
55314;SDS011;41619;42.816;23.226;2023-05-20T07:46:36;16.92;;;7.13;;
55314;SDS011;41619;42.816;23.226;2023-05-20T07:49:02;13.65;;;7.53;;
55314;SDS011;41619;42.816;23.226;2023-05-20T07:51:28;15.57;;;7.93;;
55314;SDS011;41619;42.816;23.226;2023-05-20T07:53:54;15.00;;;7.53;;
55314;SDS011;41619;42.816;23.226;2023-05-20T07:56:19;13.13;;;7.45;;
55314;SDS011;41619;42.816;23.226;2023-05-20T07:58:51;11.55;;;7.38;;
55314;SDS011;41619;42.816;23.226;2023-05-20T08:01:17;13.68;;;7.68;;
55314;SDS011;41619;42.816;23.226;2023-05-20T08:03:43;13.00;;;7.00;;
55314;SDS011;41619;42.816;23.226;2023-05-20T08:06:08;10.50;;;7.53;;
55314;SDS011;41619;42.816;23.226;2023-05-20T08:08:33;14.15;;;7.70;;
55314;SDS011;41619;42.816;23.226;2023-05-20T08:11:00;11.55;;;7.80;;
55314;SDS011;41619;42.816;23.226;2023-05-20T08:13:26;17.50;;;7.60;;
55314;SDS011;41619;42.816;23.226;2023-05-20T08:15:54;12.40;;;7.38;;
55314;SDS011;41619;42.816;23.226;2023-05-20T08:20:46;10.95;;;7.53;;
55314;SDS011;41619;42.816;23.226;2023-05-20T08:23:11;13.82;;;7.50;;
55314;SDS011;41619;42.816;23.226;2023-05-20T08:25:37;10.75;;;6.93;;
55314;SDS011;41619;42.816;23.226;2023-05-20T08:28:02;13.30;;;7.47;;
55314;SDS011;41619;42.816;23.226;2023-05-20T08:30:30;13.73;;;7.80;;
55314;SDS011;41619;42.816;23.226;2023-05-20T08:32:56;15.45;;;7.28;;
55314;SDS011;41619;42.816;23.226;2023-05-20T08:35:22;11.95;;;6.90;;
55314;SDS011;41619;42.816;23.226;2023-05-20T08:37:48;14.57;;;7.72;;
55314;SDS011;41619;42.816;23.226;2023-05-20T08:40:13;14.55;;;6.88;;
55314;SDS011;41619;42.816;23.226;2023-05-20T08:42:40;9.95;;;6.95;;
55314;SDS011;41619;42.816;23.226;2023-05-20T08:45:09;15.38;;;6.78;;
55314;SDS011;41619;42.816;23.226;2023-05-20T08:47:40;18.25;;;7.05;;
55314;SDS011;41619;42.816;23.226;2023-05-20T08:50:10;7.93;;;6.32;;
55314;SDS011;41619;42.816;23.226;2023-05-20T08:52:42;18.55;;;6.95;;
55314;SDS011;41619;42.816;23.226;2023-05-20T08:55:13;12.52;;;6.25;;
55314;SDS011;41619;42.816;23.226;2023-05-20T08:57:40;9.73;;;6.47;;
55314;SDS011;41619;42.816;23.226;2023-05-20T09:00:09;12.98;;;6.72;;
55314;SDS011;41619;42.816;23.226;2023-05-20T09:02:40;8.70;;;6.13;;
55314;SDS011;41619;42.816;23.226;2023-05-20T09:05:06;12.95;;;6.20;;
55314;SDS011;41619;42.816;23.226;2023-05-20T09:07:33;10.23;;;6.90;;
55314;SDS011;41619;42.816;23.226;2023-05-20T09:09:58;10.95;;;6.63;;
55314;SDS011;41619;42.816;23.226;2023-05-20T09:12:24;12.27;;;6.95;;
55314;SDS011;41619;42.816;23.226;2023-05-20T09:14:49;11.27;;;6.60;;
55314;SDS011;41619;42.816;23.226;2023-05-20T09:17:14;9.15;;;6.78;;
55314;SDS011;41619;42.816;23.226;2023-05-20T09:19:41;10.07;;;6.50;;
55314;SDS011;41619;42.816;23.226;2023-05-20T09:22:07;12.50;;;6.05;;
55314;SDS011;41619;42.816;23.226;2023-05-20T09:24:32;12.00;;;6.40;;
55314;SDS011;41619;42.816;23.226;2023-05-20T09:26:58;11.27;;;6.45;;
55314;SDS011;41619;42.816;23.226;2023-05-20T09:29:24;13.75;;;6.65;;
55314;SDS011;41619;42.816;23.226;2023-05-20T09:31:50;8.50;;;6.30;;
55314;SDS011;41619;42.816;23.226;2023-05-20T09:34:16;14.40;;;5.80;;
55314;SDS011;41619;42.816;23.226;2023-05-20T09:36:42;10.48;;;6.30;;
55314;SDS011;41619;42.816;23.226;2023-05-20T09:39:11;11.30;;;5.95;;
55314;SDS011;41619;42.816;23.226;2023-05-20T09:41:56;9.15;;;6.25;;
55314;SDS011;41619;42.816;23.226;2023-05-20T09:44:30;14.00;;;6.93;;
55314;SDS011;41619;42.816;23.226;2023-05-20T09:46:56;10.60;;;6.75;;
55314;SDS011;41619;42.816;23.226;2023-05-20T09:49:23;8.80;;;6.20;;
55314;SDS011;41619;42.816;23.226;2023-05-20T09:51:50;9.48;;;6.85;;
55314;SDS011;41619;42.816;23.226;2023-05-20T09:54:17;9.25;;;5.88;;
55314;SDS011;41619;42.816;23.226;2023-05-20T09:56:43;10.45;;;5.75;;
55314;SDS011;41619;42.816;23.226;2023-05-20T09:59:10;10.43;;;6.22;;
55314;SDS011;41619;42.816;23.226;2023-05-20T10:01:39;12.35;;;5.80;;
55314;SDS011;41619;42.816;23.226;2023-05-20T10:04:05;10.45;;;6.47;;
55314;SDS011;41619;42.816;23.226;2023-05-20T10:14:25;10.23;;;5.75;;
55314;SDS011;41619;42.816;23.226;2023-05-20T10:19:56;12.52;;;5.53;;
55314;SDS011;41619;42.816;23.226;2023-05-20T10:22:26;9.27;;;5.25;;
55314;SDS011;41619;42.816;23.226;2023-05-20T10:24:59;8.05;;;5.80;;
55314;SDS011;41619;42.816;23.226;2023-05-20T10:27:40;8.48;;;5.07;;
55314;SDS011;41619;42.816;23.226;2023-05-20T10:30:16;8.18;;;5.22;;
55314;SDS011;41619;42.816;23.226;2023-05-20T10:32:52;7.32;;;5.10;;
55314;SDS011;41619;42.816;23.226;2023-05-20T10:35:24;12.88;;;5.07;;
55314;SDS011;41619;42.816;23.226;2023-05-20T10:37:51;7.85;;;5.45;;
55314;SDS011;41619;42.816;23.226;2023-05-20T10:40:19;10.07;;;5.20;;
55314;SDS011;41619;42.816;23.226;2023-05-20T10:42:45;9.13;;;4.30;;
55314;SDS011;41619;42.816;23.226;2023-05-20T10:45:12;9.95;;;4.70;;
55314;SDS011;41619;42.816;23.226;2023-05-20T10:47:53;7.43;;;4.20;;
55314;SDS011;41619;42.816;23.226;2023-05-20T10:50:32;7.80;;;4.38;;
55314;SDS011;41619;42.816;23.226;2023-05-20T10:53:05;10.68;;;5.55;;
55314;SDS011;41619;42.816;23.226;2023-05-20T10:55:34;8.27;;;5.03;;
55314;SDS011;41619;42.816;23.226;2023-05-20T10:58:04;6.93;;;4.55;;
55314;SDS011;41619;42.816;23.226;2023-05-20T11:00:31;11.05;;;4.55;;
55314;SDS011;41619;42.816;23.226;2023-05-20T11:02:58;14.38;;;5.63;;
55314;SDS011;41619;42.816;23.226;2023-05-20T11:05:25;7.43;;;4.97;;
55314;SDS011;41619;42.816;23.226;2023-05-20T11:07:59;10.57;;;5.32;;
55314;SDS011;41619;42.816;23.226;2023-05-20T11:10:27;11.38;;;5.32;;
55314;SDS011;41619;42.816;23.226;2023-05-20T11:12:53;8.50;;;5.65;;
55314;SDS011;41619;42.816;23.226;2023-05-20T11:15:21;9.57;;;5.20;;
55314;SDS011;41619;42.816;23.226;2023-05-20T11:17:54;12.75;;;5.28;;
55314;SDS011;41619;42.816;23.226;2023-05-20T11:20:23;7.30;;;5.43;;
55314;SDS011;41619;42.816;23.226;2023-05-20T11:22:49;13.43;;;5.45;;
55314;SDS011;41619;42.816;23.226;2023-05-20T11:25:16;9.95;;;5.40;;
55314;SDS011;41619;42.816;23.226;2023-05-20T11:27:42;11.82;;;4.63;;
55314;SDS011;41619;42.816;23.226;2023-05-20T11:30:08;11.15;;;5.63;;
55314;SDS011;41619;42.816;23.226;2023-05-20T11:32:36;9.55;;;5.07;;
55314;SDS011;41619;42.816;23.226;2023-05-20T11:35:01;6.28;;;4.43;;
55314;SDS011;41619;42.816;23.226;2023-05-20T11:37:28;8.93;;;4.97;;
55314;SDS011;41619;42.816;23.226;2023-05-20T11:40:06;9.20;;;5.47;;
55314;SDS011;41619;42.816;23.226;2023-05-20T11:42:33;10.70;;;4.85;;
55314;SDS011;41619;42.816;23.226;2023-05-20T11:45:02;9.38;;;4.90;;
55314;SDS011;41619;42.816;23.226;2023-05-20T11:47:27;8.48;;;4.85;;
55314;SDS011;41619;42.816;23.226;2023-05-20T11:49:54;13.18;;;5.38;;
55314;SDS011;41619;42.816;23.226;2023-05-20T11:52:20;8.05;;;5.05;;
55314;SDS011;41619;42.816;23.226;2023-05-20T11:54:52;9.00;;;5.10;;
55314;SDS011;41619;42.816;23.226;2023-05-20T11:57:17;9.52;;;4.88;;
55314;SDS011;41619;42.816;23.226;2023-05-20T11:59:43;7.55;;;4.90;;
55314;SDS011;41619;42.816;23.226;2023-05-20T12:02:09;7.65;;;5.30;;
55314;SDS011;41619;42.816;23.226;2023-05-20T12:04:34;11.82;;;4.80;;
55314;SDS011;41619;42.816;23.226;2023-05-20T12:07:00;8.57;;;5.35;;
55314;SDS011;41619;42.816;23.226;2023-05-20T12:09:27;8.40;;;5.00;;
55314;SDS011;41619;42.816;23.226;2023-05-20T12:11:53;10.27;;;5.63;;
55314;SDS011;41619;42.816;23.226;2023-05-20T12:14:20;8.77;;;5.00;;
55314;SDS011;41619;42.816;23.226;2023-05-20T12:16:46;11.50;;;5.47;;
55314;SDS011;41619;42.816;23.226;2023-05-20T12:19:11;12.02;;;6.18;;
55314;SDS011;41619;42.816;23.226;2023-05-20T12:21:37;10.73;;;5.32;;
55314;SDS011;41619;42.816;23.226;2023-05-20T12:24:02;9.95;;;5.20;;
55314;SDS011;41619;42.816;23.226;2023-05-20T12:26:30;11.73;;;4.70;;
55314;SDS011;41619;42.816;23.226;2023-05-20T12:28:57;10.25;;;5.18;;
55314;SDS011;41619;42.816;23.226;2023-05-20T12:31:23;7.63;;;4.68;;
55314;SDS011;41619;42.816;23.226;2023-05-20T12:33:49;6.82;;;4.47;;
55314;SDS011;41619;42.816;23.226;2023-05-20T12:36:14;9.20;;;4.80;;
55314;SDS011;41619;42.816;23.226;2023-05-20T12:38:40;6.97;;;4.30;;
55314;SDS011;41619;42.816;23.226;2023-05-20T12:41:05;16.52;;;4.93;;
55314;SDS011;41619;42.816;23.226;2023-05-20T12:43:31;13.93;;;4.53;;
55314;SDS011;41619;42.816;23.226;2023-05-20T12:45:56;10.02;;;5.05;;
55314;SDS011;41619;42.816;23.226;2023-05-20T12:48:22;12.38;;;5.20;;
55314;SDS011;41619;42.816;23.226;2023-05-20T12:50:47;9.50;;;5.15;;
55314;SDS011;41619;42.816;23.226;2023-05-20T12:53:12;11.90;;;5.32;;
55314;SDS011;41619;42.816;23.226;2023-05-20T12:55:38;13.38;;;4.85;;
55314;SDS011;41619;42.816;23.226;2023-05-20T12:58:04;8.13;;;4.70;;
55314;SDS011;41619;42.816;23.226;2023-05-20T13:00:32;14.10;;;4.65;;
55314;SDS011;41619;42.816;23.226;2023-05-20T13:02:58;9.55;;;4.18;;
55314;SDS011;41619;42.816;23.226;2023-05-20T13:05:24;6.13;;;3.70;;
55314;SDS011;41619;42.816;23.226;2023-05-20T13:07:49;10.02;;;3.97;;
55314;SDS011;41619;42.816;23.226;2023-05-20T13:10:15;14.00;;;4.78;;
55314;SDS011;41619;42.816;23.226;2023-05-20T13:12:41;7.45;;;4.40;;
55314;SDS011;41619;42.816;23.226;2023-05-20T13:15:10;9.95;;;4.13;;
55314;SDS011;41619;42.816;23.226;2023-05-20T13:17:37;6.28;;;4.40;;
55314;SDS011;41619;42.816;23.226;2023-05-20T13:20:02;17.85;;;4.70;;
55314;SDS011;41619;42.816;23.226;2023-05-20T13:22:28;6.80;;;4.57;;
55314;SDS011;41619;42.816;23.226;2023-05-20T13:24:53;9.48;;;4.43;;
55314;SDS011;41619;42.816;23.226;2023-05-20T13:27:19;6.82;;;4.22;;
55314;SDS011;41619;42.816;23.226;2023-05-20T13:29:44;6.20;;;4.35;;
55314;SDS011;41619;42.816;23.226;2023-05-20T13:32:10;6.85;;;3.67;;
55314;SDS011;41619;42.816;23.226;2023-05-20T13:34:35;11.93;;;5.47;;
55314;SDS011;41619;42.816;23.226;2023-05-20T13:37:02;11.43;;;4.70;;
55314;SDS011;41619;42.816;23.226;2023-05-20T13:39:28;6.35;;;4.25;;
55314;SDS011;41619;42.816;23.226;2023-05-20T13:41:53;7.85;;;4.18;;
55314;SDS011;41619;42.816;23.226;2023-05-20T13:44:19;10.80;;;4.82;;
55314;SDS011;41619;42.816;23.226;2023-05-20T13:46:45;12.63;;;5.63;;
55314;SDS011;41619;42.816;23.226;2023-05-20T13:49:10;7.57;;;4.43;;
55314;SDS011;41619;42.816;23.226;2023-05-20T13:51:35;10.90;;;4.82;;
55314;SDS011;41619;42.816;23.226;2023-05-20T13:54:01;12.38;;;5.20;;
55314;SDS011;41619;42.816;23.226;2023-05-20T13:56:26;5.32;;;4.13;;
55314;SDS011;41619;42.816;23.226;2023-05-20T13:58:52;7.88;;;4.10;;
55314;SDS011;41619;42.816;23.226;2023-05-20T14:01:17;11.38;;;4.60;;
55314;SDS011;41619;42.816;23.226;2023-05-20T14:03:43;7.00;;;4.50;;
55314;SDS011;41619;42.816;23.226;2023-05-20T14:06:08;7.28;;;5.00;;
55314;SDS011;41619;42.816;23.226;2023-05-20T14:08:34;10.38;;;5.80;;
55314;SDS011;41619;42.816;23.226;2023-05-20T14:10:59;10.65;;;5.22;;
55314;SDS011;41619;42.816;23.226;2023-05-20T14:13:25;10.18;;;5.65;;
55314;SDS011;41619;42.816;23.226;2023-05-20T14:15:51;11.93;;;5.10;;
55314;SDS011;41619;42.816;23.226;2023-05-20T14:18:18;7.80;;;5.15;;
55314;SDS011;41619;42.816;23.226;2023-05-20T14:20:44;12.43;;;5.53;;
55314;SDS011;41619;42.816;23.226;2023-05-20T14:23:10;9.70;;;5.70;;
55314;SDS011;41619;42.816;23.226;2023-05-20T14:25:36;12.60;;;5.10;;
55314;SDS011;41619;42.816;23.226;2023-05-20T14:28:02;16.63;;;5.80;;